Time;durP1;ratioP1;P1;durP2;ratioP2;P2;SDS_P1;SDS_P2;PMS_P1;PMS_P2;Temp;Humidity;BMP_temperature;BMP_pressure;BME280_temperature;BME280_humidity;BME280_pressure;Samples;Min_cycle;Max_cycle;Signal;HPM_P1;HPM_P2
2022/07/04 00:00:37;;;;;;;2.83;2.55;;;;;;;15.18;67.01;101797.00;3570777;40;20061;-68
2022/07/04 00:03:03;;;;;;;2.40;2.30;;;;;;;15.16;67.19;101799.81;3571650;40;20146;-67
2022/07/04 00:05:28;;;;;;;4.45;2.80;;;;;;;15.12;67.53;101792.00;3571803;40;20063;-67
2022/07/04 00:07:54;;;;;;;4.82;2.53;;;;;;;14.98;67.95;101785.63;3571509;40;20123;-67
2022/07/04 00:10:20;;;;;;;5.30;2.60;;;;;;;14.94;68.78;101792.22;3571905;40;20391;-67
2022/07/04 00:12:47;;;;;;;4.93;2.90;;;;;;;14.86;69.11;101791.84;3569952;40;20126;-66
2022/07/04 00:15:13;;;;;;;4.00;2.55;;;;;;;14.83;69.37;101790.19;3572942;40;20068;-67
2022/07/04 00:17:39;;;;;;;7.47;2.90;;;;;;;14.78;69.81;101788.75;3571140;40;20427;-69
2022/07/04 00:20:08;;;;;;;4.32;2.90;;;;;;;14.74;69.53;101782.66;3571649;40;20055;-67
2022/07/04 00:22:34;;;;;;;4.88;3.15;;;;;;;14.62;69.33;101768.09;3571674;40;20052;-67
2022/07/04 00:25:00;;;;;;;4.45;3.10;;;;;;;14.68;69.74;101780.34;3559729;40;20053;-66
2022/07/04 00:27:25;;;;;;;4.55;3.00;;;;;;;14.48;69.80;101754.53;3571602;40;20067;-66
2022/07/04 00:29:52;;;;;;;5.50;2.88;;;;;;;14.52;69.86;101761.50;3570679;40;20094;-67
2022/07/04 00:32:18;;;;;;;5.10;3.22;;;;;;;14.60;69.90;101780.84;3572305;40;20056;-67
2022/07/04 00:34:43;;;;;;;5.68;3.38;;;;;;;14.58;69.91;101777.38;3570458;40;20388;-67
2022/07/04 00:37:09;;;;;;;8.60;3.03;;;;;;;14.58;69.83;101785.47;3569678;40;20060;-67
2022/07/04 00:39:35;;;;;;;3.90;3.03;;;;;;;14.54;70.35;101783.94;3571833;40;20079;-67
2022/07/04 00:42:01;;;;;;;7.75;3.15;;;;;;;14.53;70.61;101784.06;3570065;40;20092;-66
2022/07/04 00:44:26;;;;;;;6.38;3.47;;;;;;;14.50;70.24;101782.38;3571207;40;20056;-66
2022/07/04 00:46:52;;;;;;;4.93;3.50;;;;;;;14.34;70.73;101755.41;3570369;40;20095;-67
2022/07/04 00:49:18;;;;;;;4.78;3.30;;;;;;;14.36;70.48;101766.13;3572961;40;20064;-67
2022/07/04 00:51:46;;;;;;;7.78;3.22;;;;;;;14.38;70.71;101772.31;3570396;40;20155;-68
2022/07/04 00:54:15;;;;;;;5.60;3.40;;;;;;;14.37;70.55;101782.28;3571223;40;20048;-67
2022/07/04 00:56:43;;;;;;;5.68;3.10;;;;;;;14.33;70.45;101782.53;3571391;40;20048;-67
2022/07/04 00:59:11;;;;;;;5.18;3.20;;;;;;;14.33;70.45;101771.72;3571203;40;20052;-67
2022/07/04 01:01:38;;;;;;;5.60;3.25;;;;;;;14.29;70.66;101784.56;3569464;40;20057;-66
2022/07/04 01:04:05;;;;;;;6.70;3.22;;;;;;;14.19;70.71;101769.03;3570672;40;20065;-66
2022/07/04 01:06:33;;;;;;;5.32;3.30;;;;;;;14.28;70.82;101776.56;3569522;40;20052;-68
2022/07/04 01:09:00;;;;;;;10.05;3.38;;;;;;;14.25;71.11;101774.06;3570494;40;20087;-68
2022/07/04 01:11:26;;;;;;;4.00;3.10;;;;;;;14.21;71.45;101767.06;3570392;40;20057;-67
2022/07/04 01:13:54;;;;;;;4.70;3.38;;;;;;;14.16;71.47;101765.53;3569539;40;20378;-67
2022/07/04 01:16:20;;;;;;;4.20;3.30;;;;;;;14.12;71.59;101774.81;3571950;40;20060;-67
2022/07/04 01:18:46;;;;;;;6.80;3.28;;;;;;;13.96;71.33;101735.31;3570749;40;20087;-68
2022/07/04 01:21:12;;;;;;;6.63;3.50;;;;;;;14.10;71.77;101765.91;3572139;40;20053;-68
2022/07/04 01:23:40;;;;;;;7.15;3.80;;;;;;;14.06;71.94;101763.50;3571721;40;20060;-67
2022/07/04 01:26:07;;;;;;;5.38;3.80;;;;;;;14.00;71.99;101759.34;3570690;40;20049;-68
2022/07/04 01:28:33;;;;;;;5.45;3.90;;;;;;;13.99;71.88;101751.34;3572071;40;20057;-69
2022/07/04 01:30:59;;;;;;;5.40;3.40;;;;;;;13.98;71.83;101750.44;3571180;40;20069;-68
2022/07/04 01:33:25;;;;;;;14.77;3.85;;;;;;;13.98;72.05;101750.44;3572144;40;20060;-67
2022/07/04 01:35:51;;;;;;;6.55;3.60;;;;;;;14.00;72.12;101747.66;3569511;40;20063;-68
2022/07/04 01:38:17;;;;;;;10.68;3.92;;;;;;;14.03;71.62;101751.03;3571862;40;20052;-68
2022/07/04 01:40:43;;;;;;;6.47;3.60;;;;;;;14.04;70.82;101744.66;3570061;40;20372;-68
2022/07/04 01:43:09;;;;;;;7.93;3.97;;;;;;;14.03;71.43;101736.66;3573124;40;20056;-68
2022/07/04 01:45:37;;;;;;;9.15;3.38;;;;;;;13.86;71.45;101713.34;3573933;40;20320;-67
2022/07/04 01:48:06;;;;;;;8.15;3.55;;;;;;;13.99;71.41;101732.41;3570147;40;20061;-67
2022/07/04 01:50:32;;;;;;;8.85;3.60;;;;;;;13.92;71.79;101731.91;3572594;40;20052;-68
2022/07/04 01:52:57;;;;;;;5.93;4.18;;;;;;;13.84;72.51;101728.81;3571002;40;20416;-68
2022/07/04 01:55:23;;;;;;;7.90;3.38;;;;;;;13.86;71.74;101729.56;3571186;40;20681;-67
2022/07/04 01:57:48;;;;;;;5.68;3.30;;;;;;;13.86;71.99;101729.56;3570592;40;20064;-68
2022/07/04 02:02:59;;;;;;;6.20;4.10;;;;;;;13.83;72.06;101727.09;3570229;40;20072;-68
2022/07/04 02:05:24;;;;;;;6.80;3.72;;;;;;;13.79;72.31;101718.25;3570075;40;20075;-67
2022/07/04 02:07:51;;;;;;;7.47;3.80;;;;;;;13.84;71.80;101726.09;3569961;40;20048;-67
2022/07/04 02:10:17;;;;;;;8.88;4.07;;;;;;;13.85;71.94;101730.53;3572885;40;20057;-67
2022/07/04 02:13:02;;;;;;;5.40;3.50;;;;;;;13.84;72.10;101726.09;3569362;40;20149;-70
2022/07/04 02:15:46;;;;;;;10.70;3.72;;;;;;;13.85;71.86;101725.13;3561723;40;20052;-68
2022/07/04 02:18:11;;;;;;;;;;;;;;;13.82;71.93;101723.47;3570932;40;20065;-68
2022/07/04 02:20:37;;;;;;;6.47;4.10;;;;;;;13.68;71.81;101708.13;3568653;40;20353;-68
2022/07/04 02:23:05;;;;;;;5.47;3.83;;;;;;;13.74;72.40;101728.50;3569590;40;20072;-70
2022/07/04 02:25:31;;;;;;;9.55;4.03;;;;;;;13.70;72.57;101724.22;3571667;40;20364;-67
2022/07/04 02:27:57;;;;;;;8.10;4.53;;;;;;;13.60;72.31;101713.09;3569683;40;20130;-69
2022/07/04 02:30:25;;;;;;;7.88;4.40;;;;;;;13.65;72.76;101727.22;3570230;40;20166;-68
2022/07/04 02:32:51;;;;;;;5.80;3.97;;;;;;;13.65;72.39;101731.75;3569295;40;20061;-68
2022/07/04 02:35:16;;;;;;;12.27;4.40;;;;;;;13.65;72.40;101735.31;3570229;40;20175;-68
2022/07/04 02:37:42;;;;;;;9.57;4.28;;;;;;;13.57;72.46;101723.22;3569287;40;20394;-68
2022/07/04 02:40:09;;;;;;;13.45;5.80;;;;;;;13.31;72.60;101695.94;3569037;40;20403;-69
2022/07/04 02:42:36;;;;;;;5.82;4.43;;;;;;;13.60;72.84;101741.97;3569623;40;20055;-67
2022/07/04 02:45:04;;;;;;;8.95;4.57;;;;;;;13.60;72.75;101734.72;3569855;40;20115;-69
2022/07/04 02:47:29;;;;;;;8.15;4.32;;;;;;;13.58;73.40;101736.66;3567560;40;20480;-69
2022/07/04 02:49:55;;;;;;;9.30;4.50;;;;;;;13.54;73.74;101728.81;3570621;40;20056;-68
2022/07/04 02:52:21;;;;;;;9.45;4.40;;;;;;;13.54;73.91;101736.91;3569803;40;20048;-68
2022/07/04 02:54:48;;;;;;;8.88;4.43;;;;;;;13.51;74.30;101739.81;3569659;40;20119;-70
2022/07/04 02:57:14;;;;;;;6.97;4.07;;;;;;;13.46;74.36;101737.38;3569138;40;20131;-67
2022/07/04 02:59:40;;;;;;;7.57;4.25;;;;;;;13.43;74.37;101737.56;3569667;40;20048;-67
2022/07/04 03:02:06;;;;;;;9.23;5.00;;;;;;;13.40;74.42;101748.56;3561087;40;20053;-68
2022/07/04 03:04:31;;;;;;;6.88;4.75;;;;;;;13.41;74.36;101748.44;3572306;40;20057;-65
2022/07/04 03:06:57;;;;;;;6.38;4.43;;;;;;;13.41;74.01;101753.84;3569579;40;20096;-64
2022/07/04 03:09:23;;;;;;;7.63;4.50;;;;;;;13.43;74.48;101746.53;3568914;40;20080;-65
2022/07/04 03:11:48;;;;;;;8.95;4.47;;;;;;;13.45;73.96;101757.28;3567619;40;20048;-66
2022/07/04 03:14:14;;;;;;;7.50;4.63;;;;;;;13.47;74.49;101760.72;3568653;40;20422;-65
2022/07/04 03:16:40;;;;;;;5.70;4.40;;;;;;;13.40;74.75;101754.81;3570448;40;20052;-65
2022/07/04 03:19:05;;;;;;;7.72;4.50;;;;;;;13.45;74.62;101768.06;3568367;40;20142;-65
2022/07/04 03:21:31;;;;;;;6.53;4.55;;;;;;;13.44;74.85;101766.31;3569258;40;21885;-65
2022/07/04 03:23:59;;;;;;;6.13;4.60;;;;;;;13.43;75.11;101762.75;3568554;40;20079;-65
2022/07/04 03:26:32;;;;;;;5.40;4.25;;;;;;;13.49;74.86;101769.63;3566652;40;20101;-65
2022/07/04 03:29:00;;;;;;;10.18;4.57;;;;;;;12.78;74.77;101646.84;3565590;40;20299;-65
2022/07/04 03:31:28;;;;;;;9.80;4.72;;;;;;;13.54;74.57;101781.03;3569105;40;20099;-65
2022/07/04 03:33:54;;;;;;;8.27;4.50;;;;;;;13.57;74.83;101778.13;3565640;40;20400;-65
2022/07/04 03:36:21;;;;;;;10.07;4.93;;;;;;;13.57;74.80;101777.25;3567739;40;20098;-65
2022/07/04 03:38:47;;;;;;;5.22;4.70;;;;;;;13.28;74.73;101728.53;3566514;40;20072;-65
2022/07/04 03:41:14;;;;;;;7.45;4.65;;;;;;;13.51;74.88;101777.63;3568922;40;20281;-65
2022/07/04 03:43:40;;;;;;;7.47;4.72;;;;;;;13.60;74.72;101787.88;3569789;40;20130;-65
2022/07/04 03:46:05;;;;;;;6.35;4.75;;;;;;;13.60;74.84;101796.00;3565660;40;20068;-64
2022/07/04 03:48:31;;;;;;;5.70;4.35;;;;;;;13.59;74.76;101797.81;3567528;40;20064;-65
2022/07/04 03:50:57;;;;;;;6.40;4.47;;;;;;;13.55;74.39;101790.88;3568265;40;20068;-65
2022/07/04 03:53:23;;;;;;;5.38;4.82;;;;;;;13.57;74.23;101799.75;3568926;40;20078;-64
2022/07/04 03:55:49;;;;;;;6.50;4.97;;;;;;;13.59;74.72;101800.53;3569222;40;20056;-65
2022/07/04 03:58:15;;;;;;;5.75;4.82;;;;;;;13.66;74.68;101792.94;3571133;40;20308;-64
2022/07/04 04:00:41;;;;;;;8.23;5.43;;;;;;;13.67;74.20;101795.56;3569465;40;20384;-64
2022/07/04 04:05:26;;;;;;;9.57;4.90;;;;;;;13.76;74.52;101798.66;3569983;40;20067;-64
2022/07/04 04:05:55;;;;;;;6.10;4.28;;;;;;;13.72;73.70;101799.81;3567806;40;20122;-64
2022/07/04 04:08:21;;;;;;;5.88;4.35;;;;;;;13.82;74.14;101806.41;3566439;40;20061;-64
2022/07/04 04:10:47;;;;;;;7.00;4.95;;;;;;;13.82;73.80;101804.56;3566547;40;20540;-64
2022/07/04 04:13:12;;;;;;;10.63;4.72;;;;;;;13.83;74.29;101805.47;3568441;40;20060;-64
2022/07/04 04:15:38;;;;;;;5.47;4.53;;;;;;;13.82;74.44;101798.28;3569798;40;20060;-64
2022/07/04 04:18:04;;;;;;;6.53;4.65;;;;;;;13.85;74.48;101804.38;3568868;40;20060;-64
2022/07/04 04:20:29;;;;;;;6.63;4.85;;;;;;;13.88;74.36;101808.72;3568318;40;20080;-64
2022/07/04 04:22:55;;;;;;;5.35;4.22;;;;;;;13.90;74.24;101812.22;3566958;40;20049;-64
2022/07/04 04:25:20;;;;;;;6.13;4.45;;;;;;;13.91;74.67;101817.53;3568001;40;20041;-64
2022/07/04 04:27:46;;;;;;;5.63;4.35;;;;;;;13.72;73.96;101791.69;3568274;40;20391;-64
2022/07/04 04:30:12;;;;;;;8.90;4.70;;;;;;;13.96;74.07;101817.28;3565223;40;20104;-65
2022/07/04 04:32:37;;;;;;;6.68;4.28;;;;;;;13.98;73.89;101826.13;3567423;40;20072;-64
2022/07/04 04:35:04;;;;;;;5.03;4.43;;;;;;;14.03;73.84;101823.16;3568930;40;20049;-64
2022/07/04 04:37:29;;;;;;;7.93;4.38;;;;;;;14.03;73.86;101826.75;3567029;40;20053;-65
2022/07/04 04:39:55;;;;;;;8.85;4.65;;;;;;;14.07;73.86;101825.59;3572363;40;20302;-64
2022/07/04 04:42:21;;;;;;;5.95;4.32;;;;;;;14.05;73.90;101827.53;3568381;40;20069;-64
2022/07/04 04:44:46;;;;;;;7.95;4.47;;;;;;;14.09;73.88;101825.50;3571230;40;20071;-64
2022/07/04 04:47:12;;;;;;;6.03;4.45;;;;;;;14.10;73.98;101814.59;3569480;40;20056;-64
2022/07/04 04:49:37;;;;;;;7.28;4.03;;;;;;;14.20;74.00;101824.84;3570169;40;20060;-64
2022/07/04 04:52:03;;;;;;;4.50;3.90;;;;;;;14.22;74.16;101825.63;3569695;40;20053;-64
2022/07/04 04:54:29;;;;;;;8.23;4.40;;;;;;;14.25;74.37;101812.78;3570011;40;20368;-64
2022/07/04 04:56:55;;;;;;;9.85;4.45;;;;;;;14.27;74.50;101808.16;3571674;40;20088;-64
2022/07/04 04:59:20;;;;;;;8.25;4.43;;;;;;;14.31;74.11;101815.13;3569281;40;20068;-64
2022/07/04 05:01:46;;;;;;;7.70;5.07;;;;;;;14.33;74.30;101810.47;3572017;40;20049;-64
2022/07/04 05:04:14;;;;;;;9.30;4.43;;;;;;;14.42;74.22;101805.47;3570130;40;20307;-64
2022/07/04 05:06:40;;;;;;;7.65;4.55;;;;;;;14.32;74.16;101784.38;3569871;40;20049;-64
2022/07/04 05:09:06;;;;;;;10.07;4.80;;;;;;;14.32;74.06;101770.88;3573638;40;20744;-65
2022/07/04 05:11:32;;;;;;;6.72;4.25;;;;;;;14.63;73.78;101802.31;3569628;40;20088;-65
2022/07/04 05:13:57;;;;;;;7.53;4.13;;;;;;;14.71;73.81;101804.50;3571585;40;20071;-64
2022/07/04 05:16:23;;;;;;;6.70;4.30;;;;;;;14.77;73.74;101803.25;3575009;40;20081;-64
2022/07/04 05:18:48;;;;;;;11.27;4.53;;;;;;;14.81;73.36;101802.97;3568260;40;20100;-65
2022/07/04 05:21:14;;;;;;;12.40;4.50;;;;;;;14.86;73.25;101799.97;3570975;40;20061;-64
2022/07/04 05:23:39;;;;;;;8.48;4.30;;;;;;;14.93;73.57;101808.56;3575552;40;20052;-64
2022/07/04 05:26:05;;;;;;;6.00;4.18;;;;;;;14.71;73.56;101754.94;3572406;40;20051;-64
2022/07/04 05:28:31;;;;;;;8.75;4.68;;;;;;;15.12;73.22;101800.97;3569889;40;20348;-64
2022/07/04 05:30:56;;;;;;;9.82;4.60;;;;;;;15.15;73.55;101800.78;3576478;40;20060;-65
2022/07/04 05:33:22;;;;;;;8.13;4.20;;;;;;;15.24;73.68;101802.03;3569440;40;20056;-64
2022/07/04 05:35:47;;;;;;;7.45;4.70;;;;;;;15.29;73.24;101808.00;3569787;40;20075;-65
2022/07/04 05:38:13;;;;;;;7.47;4.65;;;;;;;15.37;73.48;101810.22;3570204;40;20053;-64
2022/07/04 05:40:39;;;;;;;7.43;4.35;;;;;;;15.41;72.93;101817.16;3574199;40;20060;-64
2022/07/04 05:43:04;;;;;;;6.15;4.30;;;;;;;15.48;73.22;101815.78;3570264;40;20044;-65
2022/07/04 05:45:30;;;;;;;6.43;4.07;;;;;;;15.52;73.31;101823.59;3573692;40;20068;-65
2022/07/04 05:47:55;;;;;;;8.00;4.00;;;;;;;15.62;73.42;101820.28;3573958;40;20388;-65
2022/07/04 05:50:21;;;;;;;8.45;3.92;;;;;;;15.72;73.11;101818.72;3569625;40;20060;-63
2022/07/04 05:52:47;;;;;;;6.60;3.90;;;;;;;15.82;72.94;101825.25;3571074;40;20049;-63
2022/07/04 05:55:12;;;;;;;9.35;4.15;;;;;;;15.90;72.70;101820.19;3570957;40;20052;-63
2022/07/04 05:57:38;;;;;;;8.88;3.90;;;;;;;16.01;72.33;101825.72;3574918;40;20090;-63
2022/07/04 06:00:05;;;;;;;10.40;4.40;;;;;;;16.13;71.77;101823.16;3572294;40;20045;-62
2022/07/04 06:02:31;;;;;;;5.57;3.40;;;;;;;16.24;71.30;101828.72;3569546;40;20071;-63
2022/07/04 06:04:56;;;;;;;7.38;3.85;;;;;;;16.36;70.94;101827.81;3576370;40;20060;-65
2022/07/04 06:07:22;;;;;;;8.60;3.35;;;;;;;16.48;70.58;101826.97;3570124;40;21838;-64
2022/07/04 06:09:48;;;;;;;6.55;3.90;;;;;;;16.60;70.23;101833.38;3570948;40;20063;-63
2022/07/04 06:12:13;;;;;;;7.15;3.92;;;;;;;16.71;70.59;101838.03;3567565;40;20060;-64
2022/07/04 06:14:39;;;;;;;6.78;3.97;;;;;;;16.80;69.82;101829.25;3574760;40;20438;-62
2022/07/04 06:17:04;;;;;;;5.43;3.80;;;;;;;16.89;69.60;101825.88;3571963;40;20052;-63
2022/07/04 06:19:31;;;;;;;8.32;3.95;;;;;;;17.04;69.61;101823.03;3572212;40;20067;-64
2022/07/04 06:21:56;;;;;;;7.15;3.88;;;;;;;17.20;69.03;101825.50;3569981;40;20057;-64
2022/07/04 06:24:22;;;;;;;5.00;3.65;;;;;;;17.38;68.47;101826.84;3569316;40;20067;-64
2022/07/04 06:26:48;;;;;;;6.00;3.45;;;;;;;17.58;67.43;101836.22;3568798;40;20524;-64
2022/07/04 06:29:14;;;;;;;8.13;3.65;;;;;;;17.72;66.46;101844.19;3570588;40;20057;-64
2022/07/04 06:31:39;;;;;;;7.57;3.45;;;;;;;17.81;65.75;101831.78;3572787;40;20060;-63
2022/07/04 06:36:49;;;;;;;9.30;3.53;;;;;;;17.75;65.52;101805.88;3571233;40;20376;-64
2022/07/04 06:39:14;;;;;;;5.95;3.40;;;;;;;17.97;66.12;101831.47;3573019;40;20076;-64
2022/07/04 06:41:40;;;;;;;6.13;3.30;;;;;;;18.07;65.73;101832.50;3570923;40;20060;-64
2022/07/04 06:44:06;;;;;;;7.55;3.10;;;;;;;18.23;64.70;101833.03;3573516;40;20048;-64
2022/07/04 06:46:31;;;;;;;8.18;3.00;;;;;;;18.36;64.03;101822.03;3572042;40;20049;-64
2022/07/04 06:48:57;;;;;;;5.97;2.88;;;;;;;18.64;63.39;101834.34;3570793;40;20058;-64
2022/07/04 06:51:23;;;;;;;6.28;2.90;;;;;;;18.85;62.20;101829.06;3570808;40;20064;-64
2022/07/04 06:53:50;;;;;;;10.13;3.08;;;;;;;19.10;61.44;101838.84;3568552;40;20060;-64
2022/07/04 06:56:17;;;;;;;3.70;2.92;;;;;;;19.21;59.98;101819.72;3570490;40;20061;-64
2022/07/04 06:58:42;;;;;;;6.28;3.10;;;;;;;19.63;58.86;101851.72;3574838;40;20362;-64
2022/07/04 07:01:08;;;;;;;6.93;2.75;;;;;;;19.86;58.95;101841.66;3571051;40;20048;-65
2022/07/04 07:03:34;;;;;;;4.72;2.90;;;;;;;19.76;56.92;101832.50;3574187;40;20045;-64
2022/07/04 07:06:01;;;;;;;6.28;3.05;;;;;;;19.61;57.67;101827.31;3574387;40;20051;-65
2022/07/04 07:08:27;;;;;;;5.75;2.80;;;;;;;19.54;57.68;101827.97;3570900;40;20126;-64
2022/07/04 07:10:53;;;;;;;4.15;2.78;;;;;;;19.45;58.18;101810.50;3567701;40;20052;-64
2022/07/04 07:13:19;;;;;;;7.53;3.05;;;;;;;19.48;58.89;101830.22;3568671;40;20957;-64
2022/07/04 07:15:44;;;;;;;5.28;2.97;;;;;;;19.64;58.39;101824.38;3567937;40;20061;-64
2022/07/04 07:18:10;;;;;;;7.47;3.22;;;;;;;19.86;58.35;101825.28;3564013;40;20384;-64
2022/07/04 07:20:36;;;;;;;6.72;3.47;;;;;;;20.03;58.44;101827.41;3568255;40;20094;-65
2022/07/04 07:23:03;;;;;;;7.03;3.00;;;;;;;20.30;57.34;101813.25;3568697;40;20061;-65
2022/07/04 07:25:30;;;;;;;7.22;3.30;;;;;;;20.51;56.30;101805.06;3568752;40;20061;-65
2022/07/04 07:27:56;;;;;;;6.30;2.90;;;;;;;20.71;55.82;101818.81;3574776;40;20316;-65
2022/07/04 07:30:22;;;;;;;5.70;2.58;;;;;;;20.82;55.38;101824.19;3569867;40;20057;-65
2022/07/04 07:32:47;;;;;;;5.68;2.28;;;;;;;20.93;51.75;101826.84;3570441;40;20143;-65
2022/07/04 07:35:14;;;;;;;3.35;2.28;;;;;;;20.91;51.10;101834.31;3569029;40;20060;-65
2022/07/04 07:37:41;;;;;;;5.75;2.00;;;;;;;20.92;50.75;101841.50;3575070;40;20122;-65
2022/07/04 07:40:08;;;;;;;4.93;2.45;;;;;;;20.96;51.17;101837.47;3570356;40;20380;-65
2022/07/04 07:42:33;;;;;;;2.00;1.77;;;;;;;20.84;51.27;101833.13;3571184;40;20115;-65
2022/07/04 07:44:59;;;;;;;4.60;2.08;;;;;;;20.77;52.03;101842.84;3571695;40;20052;-65
2022/07/04 07:47:25;;;;;;;5.60;1.75;;;;;;;20.83;50.58;101825.91;3572015;40;20052;-65
2022/07/04 07:49:50;;;;;;;1.63;1.40;;;;;;;21.00;50.64;101811.59;3574640;40;20091;-65
2022/07/04 07:52:17;;;;;;;2.67;1.70;;;;;;;21.27;49.32;101823.75;3567300;40;20285;-65
2022/07/04 07:54:43;;;;;;;3.00;1.58;;;;;;;21.51;49.77;101820.69;3570657;40;20103;-65
2022/07/04 07:57:08;;;;;;;3.15;1.30;;;;;;;21.67;48.37;101814.66;3569785;40;20064;-65
2022/07/04 07:59:34;;;;;;;4.57;1.80;;;;;;;21.83;48.89;101823.16;3568527;40;20555;-65
2022/07/04 08:02:00;;;;;;;3.67;1.67;;;;;;;21.96;47.78;101818.25;3556563;40;20122;-65
2022/07/04 08:04:34;;;;;;;6.50;1.73;;;;;;;22.05;46.85;101812.91;3556849;40;20049;-64
2022/07/04 08:07:05;;;;;;;2.45;1.40;;;;;;;22.08;46.54;101810.75;3569660;40;20315;-65
2022/07/04 08:09:32;;;;;;;2.33;1.50;;;;;;;22.17;47.27;101807.16;3567605;40;20155;-65
2022/07/04 08:12:00;;;;;;;2.45;1.70;;;;;;;22.44;47.96;101814.59;3569315;40;20117;-65
2022/07/04 08:14:27;;;;;;;4.68;1.63;;;;;;;22.68;46.71;101807.75;3568397;40;20134;-65
2022/07/04 08:16:54;;;;;;;2.40;1.30;;;;;;;22.86;45.40;101818.78;3569266;40;20118;-65
2022/07/04 08:19:20;;;;;;;3.78;1.60;;;;;;;22.95;45.95;101812.41;3565143;40;20065;-65
2022/07/04 08:21:48;;;;;;;4.63;1.85;;;;;;;23.02;45.38;101820.91;3568048;40;20405;-65
2022/07/04 08:24:15;;;;;;;3.30;1.50;;;;;;;23.15;44.02;101821.41;3568876;40;20087;-65
2022/07/04 08:26:41;;;;;;;2.38;1.10;;;;;;;23.31;43.76;101829.84;3569589;40;20308;-66
2022/07/04 08:29:06;;;;;;;2.40;1.25;;;;;;;23.31;44.01;101827.09;3569352;40;20496;-65
2022/07/04 08:31:32;;;;;;;3.20;1.45;;;;;;;23.26;44.67;101832.19;3569005;40;20068;-65
2022/07/04 08:33:58;;;;;;;4.43;2.00;;;;;;;23.31;44.47;101846.31;3569968;40;20078;-66
2022/07/04 08:36:23;;;;;;;3.92;1.60;;;;;;;23.30;44.14;101835.47;3567345;40;20060;-65
2022/07/04 08:38:49;;;;;;;3.70;1.50;;;;;;;23.34;44.21;101821.31;3569987;40;20818;-65
2022/07/04 08:41:17;;;;;;;4.10;1.40;;;;;;;23.58;44.20;101826.19;3558701;40;20060;-66
2022/07/04 08:43:47;;;;;;;2.35;1.05;;;;;;;23.66;43.43;101816.31;3570270;40;20054;-66
2022/07/04 08:46:19;;;;;;;2.72;1.17;;;;;;;23.95;44.13;101832.59;3567943;40;20190;-66
2022/07/04 08:48:52;;;;;;;3.63;1.33;;;;;;;24.26;43.23;101844.00;3569142;40;20121;-66
2022/07/04 08:51:37;;;;;;;;;;;;;;;24.33;42.54;101843.22;3560594;40;20064;-66
2022/07/04 08:58:25;;;;;;;5.03;1.50;;;;;;;24.46;42.78;101837.31;3570763;40;19939;-65
2022/07/04 08:59:37;;;;;;;2.25;1.33;;;;;;;24.69;41.38;101843.13;3571580;40;20082;-65
2022/07/04 09:02:04;;;;;;;5.63;1.67;;;;;;;24.72;41.70;101842.81;3571252;40;20411;-66
2022/07/04 09:04:31;;;;;;;3.60;1.40;;;;;;;24.89;42.40;101843.75;3569820;40;20063;-65
2022/07/04 09:06:58;;;;;;;3.75;1.50;;;;;;;25.06;41.75;101832.84;3569425;40;20072;-66
2022/07/04 09:09:26;;;;;;;3.80;1.40;;;;;;;25.10;41.36;101837.84;3568899;40;20095;-66
2022/07/04 09:11:51;;;;;;;2.08;1.50;;;;;;;25.11;40.92;101835.94;3567635;40;20089;-66
2022/07/04 09:14:17;;;;;;;5.50;1.63;;;;;;;25.23;41.92;101835.53;3571585;40;20068;-65
2022/07/04 09:16:44;;;;;;;4.72;1.40;;;;;;;25.46;42.15;101834.91;3570209;40;20048;-67
2022/07/04 09:19:21;;;;;;;4.18;1.15;;;;;;;25.43;40.49;101818.72;3568728;40;20115;-66
2022/07/04 09:21:48;;;;;;;2.67;1.35;;;;;;;25.55;41.07;101820.13;3571143;40;20059;-66
2022/07/04 09:24:15;;;;;;;4.18;1.75;;;;;;;25.69;40.49;101822.22;3569181;40;20396;-66
2022/07/04 09:26:47;;;;;;;5.60;1.75;;;;;;;25.76;39.60;101829.81;3571556;40;20126;-65
2022/07/04 09:29:13;;;;;;;5.38;1.80;;;;;;;25.74;40.51;101829.13;3570694;40;20056;-65
2022/07/04 09:31:39;;;;;;;4.93;1.50;;;;;;;25.95;39.65;101813.00;3571384;40;20072;-64
2022/07/04 09:34:07;;;;;;;2.67;1.30;;;;;;;26.16;39.04;101824.34;3569578;40;20055;-66
2022/07/04 09:36:44;;;;;;;4.50;1.50;;;;;;;26.33;39.90;101830.72;3571722;40;20048;-65
2022/07/04 09:39:21;;;;;;;3.03;1.40;;;;;;;26.41;38.75;101835.34;3568572;40;20049;-66
2022/07/04 09:41:59;;;;;;;2.92;1.20;;;;;;;26.48;39.31;101830.88;3569721;40;20049;-65
2022/07/04 09:44:28;;;;;;;7.43;1.80;;;;;;;26.36;38.31;101826.75;3568917;40;20065;-65
2022/07/04 09:46:56;;;;;;;3.08;1.15;;;;;;;26.08;38.42;101826.25;3572417;40;20061;-66
2022/07/04 09:49:22;;;;;;;3.58;1.52;;;;;;;25.63;38.42;101803.63;3567128;40;20124;-66
2022/07/04 09:51:52;;;;;;;3.20;1.30;;;;;;;25.73;38.87;101820.00;3570335;40;20064;-67
2022/07/04 09:54:28;;;;;;;1.73;1.10;;;;;;;25.89;39.02;101822.78;3569225;40;20471;-65
2022/07/04 09:56:57;;;;;;;4.50;1.58;;;;;;;26.00;37.77;101812.47;3567718;40;20045;-66
2022/07/04 09:59:27;;;;;;;3.13;1.15;;;;;;;26.00;38.93;101827.09;3571141;40;20070;-65
2022/07/04 10:02:11;;;;;;;3.28;0.82;;;;;;;25.85;38.77;101810.41;3573351;40;20057;-67
2022/07/04 10:04:51;;;;;;;2.92;1.30;;;;;;;26.07;37.82;101816.25;3569559;40;20048;-66
2022/07/04 10:07:47;;;;;;;4.13;1.10;;;;;;;26.32;38.81;101831.72;3567253;40;20056;-65
2022/07/04 10:10:37;;;;;;;4.95;1.35;;;;;;;26.61;38.83;101825.69;3570781;40;20412;-65
2022/07/04 10:13:10;;;;;;;4.47;1.67;;;;;;;26.44;38.27;101823.09;3554658;40;20300;-66
2022/07/04 10:15:39;;;;;;;3.13;1.48;;;;;;;26.29;39.28;101822.94;3567979;40;20056;-65
2022/07/04 10:18:08;;;;;;;3.85;1.55;;;;;;;26.27;38.53;101822.28;3568791;40;20370;-65
2022/07/04 10:20:36;;;;;;;5.25;1.60;;;;;;;26.25;39.33;101810.56;3567633;40;21685;-66
2022/07/04 10:23:03;;;;;;;6.07;1.40;;;;;;;26.49;40.16;101809.69;3567925;40;20057;-65
2022/07/04 10:25:29;;;;;;;2.90;1.20;;;;;;;26.33;39.60;101821.59;3568196;40;20057;-66
2022/07/04 10:27:55;;;;;;;3.28;1.40;;;;;;;26.04;38.89;101817.47;3570754;40;20134;-65
2022/07/04 10:30:42;;;;;;;3.45;1.50;;;;;;;25.58;39.82;101806.00;3570404;40;20139;-65
2022/07/04 10:33:11;;;;;;;3.13;1.35;;;;;;;25.38;39.98;101810.97;3566718;40;20061;-65
2022/07/04 10:35:53;;;;;;;4.65;1.42;;;;;;;25.66;40.45;101807.94;3569378;40;20053;-64
2022/07/04 10:38:25;;;;;;;3.88;1.45;;;;;;;25.90;38.58;101809.88;3567260;40;20130;-65
2022/07/04 10:40:57;;;;;;;3.65;1.60;;;;;;;26.11;38.85;101796.44;3566472;40;20064;-65
2022/07/04 10:43:37;;;;;;;4.28;1.52;;;;;;;26.40;37.98;101793.13;3566733;40;20057;-65
2022/07/04 10:46:02;;;;;;;3.80;1.77;;;;;;;26.61;37.49;101802.78;3567437;40;20101;-65
2022/07/04 10:48:29;;;;;;;2.50;1.25;;;;;;;26.89;39.22;101788.53;3567205;40;20057;-65
2022/07/04 10:51:06;;;;;;;5.15;1.60;;;;;;;26.78;36.31;101754.78;3567925;40;20051;-65
2022/07/04 10:54:00;;;;;;;3.28;1.30;;;;;;;27.11;35.18;101795.16;3568543;40;20407;-65
2022/07/04 10:56:25;;;;;;;;;;;;;;;27.24;36.56;101782.50;3565238;40;20049;-65
2022/07/04 10:58:51;;;;;;;3.28;1.20;;;;;;;27.15;35.16;101785.50;3570285;40;19955;-65
2022/07/04 11:01:20;;;;;;;2.25;1.13;;;;;;;27.26;36.09;101796.16;3569187;40;20068;-65
2022/07/04 11:03:49;;;;;;;2.03;1.30;;;;;;;27.37;34.99;101795.75;3566884;40;20119;-65
2022/07/04 11:06:33;;;;;;;3.72;1.35;;;;;;;27.72;34.99;101790.66;3565931;40;20113;-65
2022/07/04 11:09:20;;;;;;;3.53;1.20;;;;;;;27.46;34.84;101783.59;3568354;40;20044;-65
2022/07/04 11:12:06;;;;;;;3.00;1.25;;;;;;;27.28;34.79;101769.22;3567968;40;20080;-66
2022/07/04 11:14:46;;;;;;;4.10;1.35;;;;;;;27.18;35.84;101780.50;3568534;40;20041;-63
2022/07/04 11:17:19;;;;;;;3.38;1.25;;;;;;;26.94;34.81;101769.53;3572749;40;20079;-63
2022/07/04 11:19:46;;;;;;;5.28;1.48;;;;;;;27.30;35.95;101783.69;3569498;40;20064;-65
2022/07/04 11:22:22;;;;;;;1.92;1.35;;;;;;;27.76;35.88;101783.72;3560882;40;20085;-64
2022/07/04 11:24:48;;;;;;;4.40;1.50;;;;;;;28.19;34.77;101793.22;3568538;40;20049;-65
2022/07/04 11:27:15;;;;;;;3.00;1.60;;;;;;;28.59;32.30;101779.19;3566436;40;20380;-66
2022/07/04 11:29:52;;;;;;;3.13;1.33;;;;;;;28.35;33.66;101778.38;3567701;40;20122;-65
2022/07/04 11:32:19;;;;;;;3.25;1.63;;;;;;;28.43;33.38;101770.03;3569002;40;20064;-65
2022/07/04 11:34:46;;;;;;;3.78;1.67;;;;;;;28.39;33.67;101776.97;3569568;40;20064;-66
2022/07/04 11:37:12;;;;;;;3.55;1.20;;;;;;;28.06;32.92;101775.56;3567255;40;20734;-65